createdAt,value
2023-02-06T00:00:23.400Z,27.43
2023-02-06T00:01:25.237Z,25.07
2023-02-06T00:02:26.987Z,26.00
2023-02-06T00:03:28.996Z,26.23
2023-02-06T00:04:30.743Z,27.23
2023-02-06T00:05:33.064Z,28.60
2023-02-06T00:06:35.501Z,29.00
2023-02-06T00:07:37.212Z,31.77
2023-02-06T00:08:38.922Z,28.80
2023-02-06T00:09:40.720Z,31.10
2023-02-06T00:10:42.438Z,32.27
2023-02-06T00:11:44.143Z,32.17
2023-02-06T00:12:46.057Z,32.87
2023-02-06T00:13:48.115Z,31.10
2023-02-06T00:14:49.872Z,32.43
2023-02-06T00:15:51.644Z,31.10
2023-02-06T00:16:53.414Z,32.73
2023-02-06T00:17:55.184Z,30.47
2023-02-06T00:18:58.658Z,30.97
2023-02-06T00:20:00.374Z,31.73
2023-02-06T00:21:02.055Z,33.10
2023-02-06T00:22:04.180Z,31.33
2023-02-06T00:23:05.927Z,32.67
2023-02-06T00:24:07.750Z,33.40
2023-02-06T00:25:09.544Z,31.23
2023-02-06T00:26:11.332Z,34.00
2023-02-06T00:27:13.318Z,31.93
2023-02-06T00:28:15.195Z,36.03
2023-02-06T00:29:17.019Z,33.23
2023-02-06T00:30:18.993Z,36.83
2023-02-06T00:31:20.836Z,38.40
2023-02-06T00:32:22.658Z,37.57
2023-02-06T00:33:24.389Z,37.67
2023-02-06T00:34:26.157Z,39.10
2023-02-06T00:35:28.048Z,34.43
2023-02-06T00:36:29.916Z,38.90
2023-02-06T00:37:31.623Z,39.03
2023-02-06T00:38:33.675Z,41.77
2023-02-06T00:39:35.381Z,32.53
2023-02-06T00:40:37.502Z,38.70
2023-02-06T00:41:39.304Z,38.33
2023-02-06T00:42:41.046Z,36.50
2023-02-06T00:43:43.582Z,37.93
2023-02-06T00:44:45.350Z,37.03
2023-02-06T00:45:56.103Z,38.00
2023-02-06T00:46:58.920Z,44.03
2023-02-06T00:48:01.122Z,39.70
2023-02-06T00:49:03.196Z,39.83
2023-02-06T00:50:05.421Z,39.47
2023-02-06T00:51:07.151Z,39.20
2023-02-06T00:52:08.900Z,37.90
2023-02-06T00:53:10.700Z,36.23
2023-02-06T00:54:12.450Z,38.83
2023-02-06T00:55:14.231Z,40.97
2023-02-06T00:56:15.895Z,39.87
2023-02-06T00:57:17.561Z,39.53
2023-02-06T00:58:19.251Z,38.97
2023-02-06T00:59:21.410Z,38.77
2023-02-06T01:00:23.219Z,38.27
2023-02-06T01:01:26.330Z,39.73
2023-02-06T01:02:28.082Z,34.40
2023-02-06T01:03:30.465Z,36.33
2023-02-06T01:04:32.209Z,44.07
2023-02-06T01:05:34.355Z,40.77
2023-02-06T01:06:36.216Z,38.83
2023-02-06T01:07:39.649Z,38.43
2023-02-06T01:08:41.583Z,44.00
2023-02-06T01:09:43.292Z,43.33
2023-02-06T01:10:45.833Z,45.93
2023-02-06T01:11:47.568Z,37.37
2023-02-06T01:12:49.301Z,42.83
2023-02-06T01:13:52.114Z,42.00
2023-02-06T01:14:53.877Z,38.43
2023-02-06T01:15:55.593Z,42.00
2023-02-06T01:16:57.296Z,39.43
2023-02-06T01:17:59.088Z,39.63
2023-02-06T01:19:00.816Z,38.23
2023-02-06T01:20:03.130Z,40.53
2023-02-06T01:21:13.140Z,40.87
2023-02-06T01:22:14.860Z,41.47
2023-02-06T01:23:16.741Z,41.47
2023-02-06T01:24:18.521Z,40.73
2023-02-06T01:25:20.273Z,40.73
2023-02-06T01:26:24.442Z,37.87
2023-02-06T01:27:26.671Z,40.67
2023-02-06T01:28:28.460Z,38.57
2023-02-06T01:29:31.857Z,36.90
2023-02-06T01:30:33.721Z,39.77
2023-02-06T01:31:35.508Z,43.53
2023-02-06T01:32:38.276Z,41.47
2023-02-06T01:33:40.641Z,39.23
2023-02-06T01:34:42.645Z,38.87
2023-02-06T01:35:44.329Z,37.03
2023-02-06T01:36:46.065Z,37.57
2023-02-06T01:37:47.779Z,42.67
2023-02-06T01:38:50.141Z,39.77
2023-02-06T01:39:51.880Z,43.17
2023-02-06T01:40:57.729Z,41.17
2023-02-06T01:41:59.404Z,38.27
2023-02-06T01:43:02.057Z,36.87
2023-02-06T01:44:15.589Z,41.73
2023-02-06T01:45:26.588Z,36.80
2023-02-06T01:46:28.402Z,38.33
2023-02-06T01:47:30.105Z,36.40
2023-02-06T01:48:37.966Z,41.13
2023-02-06T01:49:48.860Z,44.10
2023-02-06T01:50:53.891Z,38.73
2023-02-06T01:52:14.193Z,42.03
2023-02-06T01:53:18.138Z,39.33
2023-02-06T01:54:20.323Z,42.97
2023-02-06T01:55:22.139Z,38.50
2023-02-06T01:56:25.724Z,41.37
2023-02-06T01:57:28.161Z,43.97
2023-02-06T01:58:37.229Z,42.70
2023-02-06T01:59:42.225Z,43.23
2023-02-06T02:00:44.211Z,41.37
2023-02-06T02:01:46.015Z,43.50
2023-02-06T02:02:49.132Z,45.53
2023-02-06T02:03:55.809Z,41.10
2023-02-06T02:04:58.234Z,43.83
2023-02-06T02:06:08.256Z,40.17
2023-02-06T02:07:23.858Z,43.20
2023-02-06T02:08:34.108Z,41.97
2023-02-06T02:09:36.622Z,42.67
2023-02-06T02:10:39.668Z,45.73
2023-02-06T02:11:43.150Z,42.07
2023-02-06T02:12:44.847Z,44.17
2023-02-06T02:13:47.444Z,45.10
2023-02-06T02:14:52.260Z,44.93
2023-02-06T02:16:02.686Z,50.70
2023-02-06T02:17:33.834Z,45.33
2023-02-06T02:18:38.574Z,44.20
2023-02-06T02:20:10.939Z,47.23
2023-02-06T02:21:58.601Z,43.60
2023-02-06T02:23:06.281Z,44.63
2023-02-06T02:24:19.320Z,46.73
2023-02-06T02:25:42.413Z,42.47
2023-02-06T02:27:05.843Z,47.37
2023-02-06T02:28:32.003Z,41.97
2023-02-06T02:30:01.675Z,39.23
2023-02-06T02:31:20.055Z,46.37
2023-02-06T02:32:28.325Z,40.87
2023-02-06T02:34:08.520Z,39.20
2023-02-06T02:35:19.435Z,37.90
2023-02-06T02:36:44.830Z,39.90
2023-02-06T02:37:52.459Z,41.77
2023-02-06T02:39:02.827Z,41.93
2023-02-06T02:40:45.837Z,44.73
2023-02-06T02:42:27.710Z,44.00
2023-02-06T02:43:44.398Z,40.40
2023-02-06T02:45:11.981Z,41.13
2023-02-06T02:46:24.368Z,36.93
2023-02-06T02:47:31.945Z,39.00
2023-02-06T02:48:39.931Z,42.80
2023-02-06T02:49:44.540Z,40.67
2023-02-06T02:50:47.013Z,41.07
2023-02-06T02:51:50.889Z,43.00
2023-02-06T02:52:53.215Z,39.27
2023-02-06T02:53:57.626Z,47.50
2023-02-06T02:54:59.404Z,40.87
2023-02-06T02:56:01.199Z,45.27
2023-02-06T02:57:09.549Z,41.20
2023-02-06T02:58:15.159Z,41.60
2023-02-06T02:59:38.054Z,45.50
2023-02-06T03:00:44.802Z,44.07
2023-02-06T03:02:01.191Z,42.30
2023-02-06T03:03:08.138Z,42.20
2023-02-06T03:04:24.452Z,44.97
2023-02-06T03:05:27.114Z,43.03
2023-02-06T03:06:46.926Z,40.70
2023-02-06T03:08:36.217Z,43.50
2023-02-06T03:09:53.815Z,42.23
2023-02-06T03:11:04.536Z,40.90
2023-02-06T03:12:18.152Z,44.13
2023-02-06T03:13:42.914Z,41.60
2023-02-06T03:14:58.021Z,42.40
2023-02-06T03:16:08.466Z,40.20
2023-02-06T03:17:14.055Z,38.87
2023-02-06T03:18:56.760Z,38.40
2023-02-06T03:20:00.640Z,38.27
2023-02-06T03:21:05.902Z,45.57
2023-02-06T03:22:07.713Z,38.73
2023-02-06T03:23:19.862Z,37.60
2023-02-06T03:24:26.377Z,40.80
2023-02-06T03:25:36.444Z,49.10
2023-02-06T03:26:40.354Z,41.67
2023-02-06T03:27:43.651Z,40.70
2023-02-06T03:28:49.804Z,44.90
2023-02-06T03:29:53.433Z,38.60
2023-02-06T03:30:58.505Z,42.67
2023-02-06T03:32:07.483Z,41.50
2023-02-06T03:33:13.122Z,43.33
2023-02-06T03:34:36.735Z,39.83
2023-02-06T03:35:39.914Z,40.00
2023-02-06T03:36:41.801Z,44.27
2023-02-06T03:37:44.428Z,42.93
2023-02-06T03:38:49.358Z,45.80
2023-02-06T03:39:51.149Z,43.17
2023-02-06T03:40:54.590Z,40.10
2023-02-06T03:41:57.702Z,46.47
2023-02-06T03:43:02.798Z,45.53
2023-02-06T03:44:09.523Z,44.90
2023-02-06T03:45:25.735Z,43.97
2023-02-06T03:46:29.461Z,42.53
2023-02-06T03:47:33.108Z,46.43
2023-02-06T03:48:39.553Z,46.33
2023-02-06T03:49:43.324Z,47.90
2023-02-06T03:50:50.158Z,42.43
2023-02-06T03:52:04.953Z,48.90
2023-02-06T03:53:08.202Z,42.10
2023-02-06T03:54:12.217Z,46.77
2023-02-06T03:55:18.762Z,46.80
2023-02-06T03:56:32.335Z,44.93
2023-02-06T03:57:36.391Z,46.37
2023-02-06T03:58:38.330Z,42.97
2023-02-06T03:59:40.326Z,41.13
2023-02-06T04:00:45.723Z,39.97
2023-02-06T04:01:59.691Z,40.17
2023-02-06T04:03:01.811Z,42.97
2023-02-06T04:04:04.420Z,42.97
2023-02-06T04:05:06.578Z,39.57
2023-02-06T04:06:08.483Z,42.33
2023-02-06T04:07:16.957Z,39.23
2023-02-06T04:08:18.652Z,41.83
2023-02-06T04:09:20.378Z,45.40
2023-02-06T04:10:24.422Z,42.43
2023-02-06T04:11:27.084Z,44.97
2023-02-06T04:12:28.792Z,45.40
2023-02-06T04:13:30.539Z,39.90
2023-02-06T04:14:32.423Z,41.83
2023-02-06T04:15:35.986Z,41.27
2023-02-06T04:16:37.936Z,40.60
2023-02-06T04:17:53.665Z,40.33
2023-02-06T04:19:00.941Z,45.03
2023-02-06T04:20:03.558Z,41.53
2023-02-06T04:21:06.915Z,41.83
2023-02-06T04:22:12.073Z,43.80
2023-02-06T04:23:13.895Z,39.50
2023-02-06T04:24:15.674Z,43.10
2023-02-06T04:25:17.635Z,41.77
2023-02-06T04:26:19.405Z,40.57
2023-02-06T04:27:21.169Z,42.27
2023-02-06T04:28:22.904Z,42.80
2023-02-06T04:29:24.654Z,39.37
2023-02-06T04:30:26.768Z,44.03
2023-02-06T04:31:28.584Z,41.93
2023-02-06T04:32:30.284Z,41.97
2023-02-06T04:33:32.083Z,41.53
2023-02-06T04:34:35.923Z,40.97
2023-02-06T04:35:37.848Z,45.83
2023-02-06T04:36:39.714Z,43.13
2023-02-06T04:37:41.486Z,46.67
2023-02-06T04:38:43.166Z,40.70
2023-02-06T04:39:44.884Z,41.17
2023-02-06T04:40:46.730Z,41.23
2023-02-06T04:41:48.620Z,44.73
2023-02-06T04:42:50.387Z,41.40
2023-02-06T04:43:52.117Z,43.33
2023-02-06T04:44:53.902Z,42.87
2023-02-06T04:45:55.611Z,43.83
2023-02-06T04:46:57.455Z,37.70
2023-02-06T04:47:59.580Z,40.63
2023-02-06T04:49:01.327Z,40.07
2023-02-06T04:50:04.191Z,45.23
2023-02-06T04:51:06.267Z,44.20
2023-02-06T04:52:07.950Z,43.30
2023-02-06T04:53:09.618Z,42.60
2023-02-06T04:54:14.128Z,40.13
2023-02-06T04:55:15.932Z,41.60
2023-02-06T04:56:17.720Z,42.03
2023-02-06T04:57:19.440Z,39.17
2023-02-06T04:58:21.235Z,46.10
2023-02-06T04:59:23.074Z,40.70
2023-02-06T05:00:24.847Z,40.87
2023-02-06T05:01:26.596Z,39.80
2023-02-06T05:02:28.371Z,42.73
2023-02-06T05:03:30.634Z,42.20
2023-02-06T05:04:32.330Z,43.30
2023-02-06T05:05:34.376Z,44.17
2023-02-06T05:06:36.430Z,41.07
2023-02-06T05:07:38.127Z,44.83
2023-02-06T05:08:39.918Z,42.40
2023-02-06T05:09:41.667Z,44.97
2023-02-06T05:10:43.347Z,42.70
2023-02-06T05:11:45.081Z,44.57
2023-02-06T05:12:47.317Z,45.37
2023-02-06T05:13:49.150Z,41.27
2023-02-06T05:14:50.903Z,43.10
2023-02-06T05:15:52.725Z,39.30
2023-02-06T05:16:54.424Z,43.20
2023-02-06T05:17:56.162Z,42.20
2023-02-06T05:18:58.121Z,39.17
2023-02-06T05:19:59.811Z,40.83
2023-02-06T05:21:01.862Z,41.33
2023-02-06T05:22:03.606Z,44.07
2023-02-06T05:23:05.365Z,38.77
2023-02-06T05:24:07.189Z,42.63
2023-02-06T05:25:08.940Z,40.67
2023-02-06T05:26:10.684Z,39.77
2023-02-06T05:27:12.401Z,41.73
2023-02-06T05:28:14.223Z,39.63
2023-02-06T05:29:16.122Z,39.93
2023-02-06T05:30:18.847Z,37.23
2023-02-06T05:31:20.768Z,41.80
2023-02-06T05:32:22.644Z,38.30
2023-02-06T05:33:24.389Z,42.00
2023-02-06T05:34:26.205Z,35.53
2023-02-06T05:35:29.663Z,42.20
2023-02-06T05:36:31.400Z,39.17
2023-02-06T05:37:33.414Z,41.20
2023-02-06T05:38:35.218Z,39.37
2023-02-06T05:39:36.989Z,41.37
2023-02-06T05:40:38.818Z,39.70
2023-02-06T05:41:40.617Z,40.57
2023-02-06T05:42:42.369Z,42.23
2023-02-06T05:43:44.560Z,42.77
2023-02-06T05:44:46.299Z,44.97
2023-02-06T05:45:48.097Z,39.57
2023-02-06T05:46:49.875Z,37.50
2023-02-06T05:47:53.728Z,38.83
2023-02-06T05:48:55.469Z,39.07
2023-02-06T05:49:57.196Z,39.40
2023-02-06T05:50:58.907Z,35.93
2023-02-06T05:52:00.861Z,39.43
2023-02-06T05:53:02.539Z,40.83
2023-02-06T05:54:04.375Z,39.23
2023-02-06T05:55:06.565Z,36.37
2023-02-06T05:56:08.587Z,37.07
2023-02-06T05:57:11.000Z,36.77
2023-02-06T05:58:13.152Z,36.73
2023-02-06T05:59:14.851Z,36.17
2023-02-06T06:00:16.981Z,35.93
2023-02-06T06:01:20.245Z,39.50
2023-02-06T06:02:22.042Z,37.00
2023-02-06T06:03:23.943Z,36.53
2023-02-06T06:04:25.919Z,36.90
2023-02-06T06:05:27.841Z,34.67
2023-02-06T06:06:29.670Z,35.57
2023-02-06T06:07:31.756Z,35.23
2023-02-06T06:08:33.600Z,35.30
2023-02-06T06:09:35.287Z,34.60
2023-02-06T06:10:37.032Z,34.80
2023-02-06T06:11:38.716Z,36.50
2023-02-06T06:12:40.416Z,35.03
2023-02-06T06:13:42.164Z,33.93
2023-02-06T06:14:43.929Z,35.13
2023-02-06T06:15:45.715Z,32.97
2023-02-06T06:16:47.464Z,36.77
2023-02-06T06:17:49.281Z,41.53
2023-02-06T06:18:51.233Z,35.23
2023-02-06T06:19:52.976Z,37.33
2023-02-06T06:20:54.692Z,36.10
2023-02-06T06:21:58.272Z,38.27
2023-02-06T06:23:00.180Z,36.90
2023-02-06T06:24:02.179Z,40.93
2023-02-06T06:25:06.643Z,36.03
2023-02-06T06:26:08.375Z,38.57
2023-02-06T06:27:10.789Z,36.87
2023-02-06T06:28:12.780Z,36.50
2023-02-06T06:29:15.077Z,38.77
2023-02-06T06:30:17.158Z,33.80
2023-02-06T06:31:19.244Z,35.57
2023-02-06T06:32:21.032Z,34.67
2023-02-06T06:33:22.734Z,35.70
2023-02-06T06:34:24.532Z,39.23
2023-02-06T06:35:26.282Z,36.93
2023-02-06T06:36:28.091Z,35.03
2023-02-06T06:37:29.871Z,33.30
2023-02-06T06:38:31.697Z,37.97
2023-02-06T06:39:33.377Z,35.73
2023-02-06T06:40:35.257Z,33.47
2023-02-06T06:41:37.064Z,38.67
2023-02-06T06:42:38.731Z,35.23
2023-02-06T06:43:41.111Z,35.10
2023-02-06T06:44:42.823Z,37.30
2023-02-06T06:45:45.214Z,33.57
2023-02-06T06:46:46.958Z,32.57
2023-02-06T06:47:49.065Z,34.97
2023-02-06T06:48:50.820Z,36.27
2023-02-06T06:49:52.561Z,35.10
2023-02-06T06:50:54.277Z,34.23
2023-02-06T06:51:56.020Z,33.10
2023-02-06T06:52:57.715Z,35.63
2023-02-06T06:53:59.429Z,38.50
2023-02-06T06:55:01.171Z,35.07
2023-02-06T06:56:12.140Z,34.87
2023-02-06T06:57:13.917Z,37.97
2023-02-06T06:58:15.832Z,37.07
2023-02-06T06:59:17.548Z,34.03
2023-02-06T07:00:19.695Z,32.50
2023-02-06T07:01:21.704Z,35.47
2023-02-06T07:02:23.550Z,32.53
2023-02-06T07:03:25.703Z,32.57
2023-02-06T07:04:30.661Z,36.40
2023-02-06T07:05:32.452Z,30.83
2023-02-06T07:06:34.174Z,31.87
2023-02-06T07:07:36.547Z,31.63
2023-02-06T07:08:44.162Z,34.23
2023-02-06T07:09:45.896Z,31.50
2023-02-06T07:10:48.099Z,32.13
2023-02-06T07:11:49.967Z,33.17
2023-02-06T07:12:53.626Z,37.30
2023-02-06T07:13:55.372Z,35.93
2023-02-06T07:14:57.087Z,32.73
2023-02-06T07:15:58.743Z,30.00
2023-02-06T07:17:01.652Z,31.47
2023-02-06T07:18:03.450Z,33.07
2023-02-06T07:19:05.228Z,33.47
2023-02-06T07:20:07.320Z,33.53
2023-02-06T07:21:09.873Z,33.87
2023-02-06T07:22:11.633Z,32.33
2023-02-06T07:23:13.501Z,30.67
2023-02-06T07:24:15.187Z,31.23
2023-02-06T07:25:20.415Z,31.53
2023-02-06T07:26:22.119Z,35.13
2023-02-06T07:27:23.905Z,32.20
2023-02-06T07:28:25.595Z,33.53
2023-02-06T07:29:27.380Z,32.87
2023-02-06T07:30:29.447Z,34.43
2023-02-06T07:31:31.191Z,30.60
2023-02-06T07:32:36.379Z,34.20
2023-02-06T07:33:38.133Z,31.73
2023-02-06T07:34:40.614Z,30.97
2023-02-06T07:35:42.906Z,35.73
2023-02-06T07:36:44.604Z,30.07
2023-02-06T07:37:46.348Z,32.23
2023-02-06T07:38:48.905Z,34.47
2023-02-06T07:39:50.735Z,32.33
2023-02-06T07:40:52.498Z,33.03
2023-02-06T07:41:54.273Z,35.97
2023-02-06T07:42:55.924Z,30.33
2023-02-06T07:43:57.738Z,34.17
2023-02-06T07:45:00.133Z,37.83
2023-02-06T07:46:04.072Z,30.80
2023-02-06T07:47:06.357Z,33.47
2023-02-06T07:48:08.634Z,35.67
2023-02-06T07:49:13.634Z,31.80
2023-02-06T07:50:15.529Z,33.10
2023-02-06T07:51:17.251Z,33.37
2023-02-06T07:52:20.169Z,34.97
2023-02-06T07:53:22.088Z,30.30
2023-02-06T07:54:23.826Z,33.77
2023-02-06T07:55:25.850Z,31.83
2023-02-06T07:56:27.593Z,30.47
2023-02-06T07:57:29.273Z,29.47
2023-02-06T07:58:30.991Z,31.30
2023-02-06T07:59:32.668Z,29.40
2023-02-06T08:00:34.346Z,29.47
2023-02-06T08:01:36.797Z,30.60
2023-02-06T08:02:38.606Z,36.50
2023-02-06T08:03:40.384Z,28.50
2023-02-06T08:04:42.260Z,30.37
2023-02-06T08:05:44.054Z,29.20
2023-02-06T08:06:45.789Z,30.30
2023-02-06T08:07:47.606Z,26.77
2023-02-06T08:08:49.800Z,30.33
2023-02-06T08:09:51.553Z,27.23
2023-02-06T08:10:53.296Z,29.13
2023-02-06T08:11:55.035Z,27.93
2023-02-06T08:12:56.804Z,30.37
2023-02-06T08:13:58.693Z,31.47
2023-02-06T08:15:00.394Z,28.47
2023-02-06T08:16:11.754Z,32.70
2023-02-06T08:17:13.749Z,28.70
2023-02-06T08:18:16.010Z,27.57
2023-02-06T08:19:18.496Z,28.57
2023-02-06T08:20:20.250Z,31.37
2023-02-06T08:21:24.322Z,26.77
2023-02-06T08:22:28.114Z,28.67
2023-02-06T08:23:29.983Z,29.73
2023-02-06T08:24:31.933Z,23.33
2023-02-06T08:25:33.805Z,24.33
2023-02-06T08:26:35.508Z,24.33
2023-02-06T08:27:37.189Z,27.30
2023-02-06T08:28:42.158Z,26.33
2023-02-06T08:29:44.148Z,24.97
2023-02-06T08:30:45.976Z,22.30
2023-02-06T08:31:47.942Z,22.20
2023-02-06T08:32:50.137Z,21.07
2023-02-06T08:33:52.193Z,20.03
2023-02-06T08:34:53.881Z,18.63
2023-02-06T08:35:55.579Z,22.57
2023-02-06T08:36:57.251Z,19.80
2023-02-06T08:38:00.818Z,21.23
2023-02-06T08:39:03.494Z,20.27
2023-02-06T08:40:05.699Z,22.27
2023-02-06T08:41:22.089Z,20.57
2023-02-06T08:42:23.772Z,19.47
2023-02-06T08:43:25.789Z,20.93
2023-02-06T08:44:28.096Z,17.63
2023-02-06T08:45:29.837Z,17.67
2023-02-06T08:46:32.567Z,17.37
2023-02-06T08:47:34.364Z,17.87
2023-02-06T08:48:36.040Z,20.93
2023-02-06T08:49:38.321Z,18.47
2023-02-06T08:50:40.078Z,18.83
2023-02-06T08:51:42.452Z,18.30
2023-02-06T08:52:44.239Z,16.67
2023-02-06T08:53:46.004Z,18.13
2023-02-06T08:54:51.036Z,18.50
2023-02-06T08:56:01.734Z,17.43
2023-02-06T08:57:03.562Z,18.90
2023-02-06T08:58:05.500Z,17.57
2023-02-06T08:59:08.115Z,19.07
2023-02-06T09:00:10.369Z,18.57
2023-02-06T09:01:14.427Z,14.93
2023-02-06T09:02:16.210Z,16.67
2023-02-06T09:03:18.474Z,17.20
2023-02-06T09:04:20.548Z,15.27
2023-02-06T09:05:22.749Z,17.57
2023-02-06T09:06:25.541Z,15.13
2023-02-06T09:07:27.520Z,15.50
2023-02-06T09:08:30.163Z,16.57
2023-02-06T09:09:31.944Z,15.03
2023-02-06T09:10:33.690Z,16.80
2023-02-06T09:11:35.801Z,17.23
2023-02-06T09:12:37.676Z,15.50
2023-02-06T09:13:39.608Z,16.37
2023-02-06T09:14:42.050Z,14.70
2023-02-06T09:15:51.466Z,14.10
2023-02-06T09:16:53.174Z,14.87
2023-02-06T09:17:54.994Z,16.77
2023-02-06T09:19:01.241Z,14.10
2023-02-06T09:20:03.286Z,17.43
2023-02-06T09:21:11.589Z,15.57
2023-02-06T09:22:13.319Z,13.80
2023-02-06T09:23:18.085Z,13.03
2023-02-06T09:24:20.013Z,14.20
2023-02-06T09:25:21.809Z,18.67
2023-02-06T09:26:30.347Z,19.53
2023-02-06T09:27:32.045Z,15.07
2023-02-06T09:28:33.950Z,16.33
2023-02-06T09:29:35.774Z,16.10
2023-02-06T09:30:37.961Z,16.37
2023-02-06T09:31:42.016Z,20.70
2023-02-06T09:32:43.982Z,20.83
2023-02-06T09:33:45.784Z,13.97
2023-02-06T09:34:49.114Z,13.67
2023-02-06T09:36:00.767Z,19.80
2023-02-06T09:37:04.056Z,16.20
2023-02-06T09:38:05.737Z,13.80
2023-02-06T09:39:09.077Z,14.53
2023-02-06T09:40:13.816Z,14.67
2023-02-06T09:41:18.978Z,14.63
2023-02-06T09:42:35.751Z,17.33
2023-02-06T09:43:38.177Z,14.97
2023-02-06T09:44:44.486Z,14.77
2023-02-06T09:45:47.820Z,14.70
2023-02-06T09:46:54.977Z,15.00
2023-02-06T09:48:13.913Z,16.60
2023-02-06T09:49:22.262Z,15.80
2023-02-06T09:50:49.088Z,15.53
2023-02-06T09:52:22.150Z,15.27
2023-02-06T09:53:46.630Z,15.40
2023-02-06T09:55:09.214Z,17.17
2023-02-06T09:56:28.630Z,15.13
2023-02-06T09:57:51.848Z,17.17
2023-02-06T09:59:10.377Z,15.43
2023-02-06T10:00:37.571Z,13.53
2023-02-06T10:01:53.018Z,12.80
2023-02-06T10:03:03.546Z,14.93
2023-02-06T10:04:13.869Z,19.43
2023-02-06T10:05:41.977Z,18.20
2023-02-06T10:07:10.065Z,16.17
2023-02-06T10:08:23.023Z,16.13
2023-02-06T10:09:34.726Z,13.60
2023-02-06T10:11:01.530Z,16.70
2023-02-06T10:12:29.123Z,14.63
2023-02-06T10:13:49.633Z,15.23
2023-02-06T10:14:57.144Z,14.77
2023-02-06T10:16:07.208Z,14.30
2023-02-06T10:17:24.793Z,14.10
2023-02-06T10:18:33.433Z,13.80
2023-02-06T10:19:56.658Z,15.43
2023-02-06T10:21:34.938Z,15.20
2023-02-06T10:22:59.432Z,14.23
2023-02-06T10:24:09.792Z,13.80
2023-02-06T10:25:21.144Z,14.87
2023-02-06T10:26:23.455Z,15.40
2023-02-06T10:27:25.182Z,14.83
2023-02-06T10:28:29.967Z,11.63
2023-02-06T10:29:34.071Z,11.30
2023-02-06T10:31:01.750Z,10.13
2023-02-06T10:32:15.506Z,13.20
2023-02-06T10:33:27.404Z,10.60
2023-02-06T10:34:59.101Z,10.77
2023-02-06T10:36:10.174Z,10.53
2023-02-06T10:37:26.133Z,11.27
2023-02-06T10:38:33.847Z,14.00
2023-02-06T10:39:47.329Z,13.73
2023-02-06T10:41:13.583Z,11.87
2023-02-06T10:42:24.108Z,12.10
2023-02-06T10:43:26.696Z,10.43
2023-02-06T10:44:37.472Z,14.03
2023-02-06T10:46:19.815Z,13.67
2023-02-06T10:47:36.207Z,10.67
2023-02-06T10:48:44.400Z,8.70
2023-02-06T10:49:51.548Z,12.97
2023-02-06T10:51:10.037Z,7.87
2023-02-06T10:52:39.238Z,9.13
2023-02-06T10:53:54.371Z,10.50
2023-02-06T10:55:03.688Z,11.93
2023-02-06T10:56:19.054Z,8.47
2023-02-06T10:57:24.967Z,11.70
2023-02-06T10:58:35.742Z,12.23
2023-02-06T10:59:48.123Z,10.93
2023-02-06T11:00:51.346Z,11.77
2023-02-06T11:02:11.838Z,9.60
2023-02-06T11:03:18.595Z,7.80
2023-02-06T11:04:42.931Z,9.63
2023-02-06T11:05:44.659Z,11.63
2023-02-06T11:06:46.960Z,8.93
2023-02-06T11:08:08.240Z,11.90
2023-02-06T11:09:10.610Z,8.63
2023-02-06T11:10:17.662Z,10.07
2023-02-06T11:11:26.257Z,8.67
2023-02-06T11:12:31.461Z,6.40
2023-02-06T11:13:38.998Z,7.40
2023-02-06T11:14:41.085Z,6.27
2023-02-06T11:16:08.284Z,4.23
2023-02-06T11:17:11.416Z,6.13
2023-02-06T11:18:18.666Z,5.60
2023-02-06T11:19:30.984Z,6.70
2023-02-06T11:20:36.511Z,4.70
2023-02-06T11:21:41.285Z,6.63
2023-02-06T11:22:52.294Z,8.50
2023-02-06T11:24:12.621Z,8.40
2023-02-06T11:25:33.849Z,7.73
2023-02-06T11:26:46.092Z,6.87
2023-02-06T11:27:48.231Z,5.57
2023-02-06T11:28:56.252Z,6.03
2023-02-06T11:30:06.562Z,10.13
2023-02-06T11:31:10.069Z,6.13
2023-02-06T11:32:27.984Z,4.70
2023-02-06T11:33:39.112Z,7.53
2023-02-06T11:35:15.923Z,5.43
2023-02-06T11:36:31.075Z,5.53
2023-02-06T11:37:32.713Z,6.43
2023-02-06T11:38:34.687Z,4.83
2023-02-06T11:39:39.050Z,6.20
2023-02-06T11:40:41.065Z,4.23
2023-02-06T11:42:15.351Z,5.33
2023-02-06T11:43:21.302Z,4.10
2023-02-06T11:44:25.794Z,6.20
2023-02-06T11:45:33.039Z,5.13
2023-02-06T11:46:36.509Z,6.93
2023-02-06T11:47:38.325Z,6.27
2023-02-06T11:48:48.874Z,5.47
2023-02-06T11:49:50.550Z,5.97
2023-02-06T11:50:54.965Z,6.03
2023-02-06T11:52:03.624Z,7.00
2023-02-06T11:53:16.876Z,5.30
2023-02-06T11:54:28.526Z,4.30
2023-02-06T11:55:34.175Z,5.13
2023-02-06T11:56:36.053Z,6.00
2023-02-06T11:57:37.748Z,5.40
2023-02-06T11:58:39.448Z,6.17
2023-02-06T11:59:52.258Z,3.93
2023-02-06T12:00:56.660Z,4.20
2023-02-06T12:02:01.358Z,5.90
2023-02-06T12:03:04.417Z,4.80
2023-02-06T12:04:14.105Z,4.13
2023-02-06T12:05:18.195Z,4.93
2023-02-06T12:06:40.198Z,5.73
2023-02-06T12:07:53.543Z,6.83
2023-02-06T12:09:00.910Z,7.77
2023-02-06T12:10:04.041Z,6.17
2023-02-06T12:11:12.494Z,5.70
2023-02-06T12:12:35.702Z,6.57
2023-02-06T12:13:50.574Z,4.87
2023-02-06T12:14:58.354Z,5.23
2023-02-06T12:16:04.056Z,4.77
2023-02-06T12:17:32.522Z,7.97
2023-02-06T12:18:43.884Z,5.37
2023-02-06T12:19:52.272Z,6.07
2023-02-06T12:21:00.378Z,4.70
2023-02-06T12:22:11.276Z,5.77
2023-02-06T12:23:18.080Z,6.80
2023-02-06T12:24:29.794Z,7.73
2023-02-06T12:25:38.132Z,5.37
2023-02-06T12:26:41.054Z,6.53
2023-02-06T12:27:44.125Z,6.97
2023-02-06T12:29:09.578Z,5.10
2023-02-06T12:30:28.485Z,5.13
2023-02-06T12:31:53.817Z,6.97
2023-02-06T12:33:08.344Z,8.40
2023-02-06T12:34:18.495Z,8.43
2023-02-06T12:35:46.582Z,7.20
2023-02-06T12:37:00.300Z,6.90
2023-02-06T12:38:08.020Z,5.53
2023-02-06T12:39:19.953Z,6.43
2023-02-06T12:40:40.308Z,8.20
2023-02-06T12:42:11.931Z,6.90
2023-02-06T12:43:16.629Z,5.50
2023-02-06T12:44:21.422Z,6.80
2023-02-06T12:46:01.307Z,6.73
2023-02-06T12:47:23.004Z,6.67
2023-02-06T12:48:27.460Z,8.80
2023-02-06T12:49:34.825Z,8.23
2023-02-06T12:50:46.412Z,10.03
2023-02-06T12:51:56.603Z,9.23
2023-02-06T12:53:26.422Z,8.33
2023-02-06T12:54:36.154Z,9.43
2023-02-06T12:55:49.725Z,8.77
2023-02-06T12:57:00.545Z,11.10
2023-02-06T12:58:03.299Z,7.10
2023-02-06T12:59:10.806Z,8.27
2023-02-06T13:00:40.291Z,9.53
2023-02-06T13:01:56.140Z,9.47
2023-02-06T13:03:34.352Z,9.93
2023-02-06T13:04:37.723Z,9.90
2023-02-06T13:05:43.909Z,9.80
2023-02-06T13:06:54.987Z,8.33
2023-02-06T13:08:04.015Z,8.83
2023-02-06T13:09:07.465Z,8.43
2023-02-06T13:10:21.464Z,9.07
2023-02-06T13:11:30.084Z,10.27
2023-02-06T13:12:33.049Z,8.53
2023-02-06T13:13:42.345Z,9.80
2023-02-06T13:14:50.776Z,10.53
2023-02-06T13:15:55.205Z,7.93
2023-02-06T13:17:14.712Z,8.20
2023-02-06T13:18:36.123Z,9.50
2023-02-06T13:19:37.964Z,8.83
2023-02-06T13:21:14.643Z,8.37
2023-02-06T13:22:17.362Z,7.30
2023-02-06T13:23:22.545Z,6.37
2023-02-06T13:24:24.427Z,7.70
2023-02-06T13:25:26.288Z,8.27
2023-02-06T13:26:51.525Z,8.00
2023-02-06T13:27:55.101Z,8.70
2023-02-06T13:28:58.485Z,10.30
2023-02-06T13:30:23.783Z,8.37
2023-02-06T13:31:28.439Z,7.73
2023-02-06T13:32:32.361Z,9.37
2023-02-06T13:33:42.995Z,7.77
2023-02-06T13:34:44.773Z,8.27
2023-02-06T13:35:55.796Z,5.97
2023-02-06T13:37:33.844Z,6.93
2023-02-06T13:38:35.546Z,8.03
2023-02-06T13:39:37.264Z,5.30
2023-02-06T13:40:39.380Z,4.97
2023-02-06T13:41:42.522Z,4.70
2023-02-06T13:42:54.635Z,4.20
2023-02-06T13:44:01.299Z,4.87
2023-02-06T13:45:06.216Z,4.87
2023-02-06T13:46:40.306Z,5.73
2023-02-06T13:48:13.265Z,5.47
2023-02-06T13:49:29.859Z,5.93
2023-02-06T13:50:47.440Z,4.90
2023-02-06T13:52:05.105Z,3.90
2023-02-06T13:53:31.003Z,4.60
2023-02-06T13:54:57.539Z,5.33
2023-02-06T13:56:43.142Z,6.10
2023-02-06T13:58:14.188Z,4.77
2023-02-06T13:59:28.031Z,6.90
2023-02-06T14:00:32.542Z,4.73
2023-02-06T14:01:34.425Z,5.70
2023-02-06T14:02:42.531Z,4.57
2023-02-06T14:03:53.105Z,5.77
2023-02-06T14:04:55.375Z,4.50
2023-02-06T14:06:07.312Z,4.33
2023-02-06T14:07:24.075Z,5.77
2023-02-06T14:08:57.944Z,3.77
2023-02-06T14:10:16.467Z,4.57
2023-02-06T14:11:51.889Z,5.30
2023-02-06T14:12:53.601Z,5.70
2023-02-06T14:14:14.715Z,4.87
2023-02-06T14:15:22.789Z,3.93
2023-02-06T14:16:41.562Z,5.70
2023-02-06T14:17:49.712Z,6.80
2023-02-06T14:19:05.039Z,6.73
2023-02-06T14:20:44.123Z,4.90
2023-02-06T14:21:56.520Z,6.83
2023-02-06T14:23:17.048Z,4.23
2023-02-06T14:24:22.991Z,5.63
2023-02-06T14:25:54.784Z,4.23
2023-02-06T14:27:05.768Z,4.90
2023-02-06T14:28:25.856Z,6.13